Hauptseite
METAR-TAF:

METAR-TAF

Flughäfen :

Monte Malanotte

Prato Nevoso, Italien

Breite: 44-15N, Länge: 007-48E, Höhe: 1741 m

Beobachtung

Neuester Wetterbericht von vor 1 Stunde und 13 Minuten, um 06:55 UTC
Wind 5 kt aus Süd/Südwest
Temperatur 8°C
Luftfeuchtigkeit 76%
Luftdruck 1024 hPa
Sichtweite 10 km oder mehr
keine Wolken unter 1500 m und keine Kumulonimbus oder Gewitterwolken

METAR: LIMY 230655Z 21005KT CAVOK 08/04 Q1024 RMK SKC VAL NIL VIS MIN 9999

Zeit: 10:08 (08:08 UTC)


TAF: fehlend

Wetterbeobachtungen und Prognosen von mehr als 4000 Flughäfen (METAR und TAF Bericht).

Die verfügbaren Stationen werden durch gelbe und rote Markierungen auf der Karte dargestellt.

Führen Sie die Maus auf sie, um den Namen der Station zu sehen.

Darauf klicken, um die Beobachtung von Wetterbeobachtungen und Prognosen zu sehen.

Um die Karte zu ändern : klicken Sie auf den grünen Tasten mit einem schwarzen Kreuz Zum Vergrößern, auf den grünen Button mit einem Gedankenstrich zu verkleinern, oder auf die grünen Pfeile für benachbarte Karten.


METAR-TAF: